Swanlake, Idaho
Current Conditions -  °F | °C
As of 3:51 PM on Wednesday 22 Oct 2014 (Local Time) from KLGU Reporting Station
Clear Clear  
Wind Chill: 59°   Ceiling: Unl
Heat Index: 59°   Visibility: 10mi
Dew Point: 25°   Wind: 3mph
Humidity: 27%   Direction: 330°NNW
Pressure: 30.17"   Gusts: NA
Location:  42.31°N, 112.01°W
Report Text: KLGU 222151Z AUTO 33003KT 10SM CLR 15/M04 A3017 RMK AO2 SLP207 T01501039 TSNO
Loading
Personal Weather Stations






























Interactive Weather Map
Tropical Storm Tracking
New forecast layout! Learn more

10-Day Weather Forecast

Advertisements
Track Severe Weather on mobile